Terminal Aerodrome Forecast
Issued by NWS

Home | Current Version | Previous Version | Text Only | Print | Product List | Glossary On
Versions: 1 2 3 4 5 6 7 8 9 10 11 12 13 14
000
FTAK31 PAJN 041154
TAFAGY
TAF
PAGY 041154Z 0412/0512 VRB02KT P6SM OVC080
     FM041500 21006KT P6SM VCSH SCT050 OVC080
     FM042100 21013G23KT P6SM VCSH OVC060
     FM050100 21012KT P6SM -RA OVC060
     FM050500 21004KT P6SM -RA SCT025 OVC050
     FM051000 00000KT 6SM -RA BKN025 OVC050
      AMD LTD TO CLD VIS AND WIND=

USA.gov is the U.S. government's official web portal to all federal, state and local government web resources and services.